createdAt,value
2023-12-20T00:00:24.722Z,60.40
2023-12-20T00:03:41.386Z,60.30
2023-12-20T00:06:32.233Z,60.24
2023-12-20T00:09:20.475Z,60.18
2023-12-20T00:12:08.874Z,60.06
2023-12-20T00:14:56.501Z,60.01
2023-12-20T00:17:44.726Z,60.17
2023-12-20T00:20:32.805Z,60.21
2023-12-20T00:23:21.103Z,60.77
2023-12-20T00:26:08.889Z,60.94
2023-12-20T00:28:56.800Z,61.28
2023-12-20T00:31:44.667Z,61.15
2023-12-20T00:34:32.630Z,60.93
2023-12-20T00:37:20.895Z,60.71
2023-12-20T00:40:09.638Z,60.67
2023-12-20T00:42:57.489Z,60.86
2023-12-20T00:45:45.526Z,60.63
2023-12-20T00:48:33.250Z,60.36
2023-12-20T00:51:21.408Z,59.93
2023-12-20T00:54:08.934Z,59.89
2023-12-20T00:56:56.935Z,59.65
2023-12-20T00:59:44.611Z,59.70
2023-12-20T01:02:32.154Z,59.51
2023-12-20T01:05:20.706Z,59.09
2023-12-20T01:08:08.444Z,61.65
2023-12-20T01:10:57.330Z,64.07
2023-12-20T01:13:45.176Z,62.79
2023-12-20T01:16:33.626Z,62.13
2023-12-20T01:19:21.557Z,61.53
2023-12-20T01:22:09.535Z,60.47
2023-12-20T01:24:56.951Z,60.30
2023-12-20T01:27:44.662Z,60.04
2023-12-20T01:30:33.939Z,58.69
2023-12-20T01:33:21.690Z,58.21
2023-12-20T01:36:10.053Z,61.02
2023-12-20T01:38:57.731Z,65.01
2023-12-20T01:41:47.089Z,65.16
2023-12-20T01:44:34.781Z,64.21
2023-12-20T01:47:23.471Z,62.60
2023-12-20T01:50:11.436Z,61.99
2023-12-20T01:53:02.753Z,61.58
2023-12-20T01:55:51.948Z,61.39
2023-12-20T01:58:45.272Z,60.62
2023-12-20T02:01:33.678Z,60.41
2023-12-20T02:04:21.491Z,60.31
2023-12-20T02:07:10.401Z,60.05
2023-12-20T02:09:58.359Z,59.74
2023-12-20T02:12:46.367Z,59.50
2023-12-20T02:15:34.295Z,58.45
2023-12-20T02:18:22.656Z,61.86
2023-12-20T02:21:10.993Z,63.81
2023-12-20T02:23:58.637Z,63.41
2023-12-20T02:26:47.398Z,62.51
2023-12-20T02:29:36.516Z,61.15
2023-12-20T02:32:28.805Z,60.66
2023-12-20T02:35:16.694Z,60.39
2023-12-20T02:38:04.419Z,59.99
2023-12-20T02:40:52.148Z,59.89
2023-12-20T02:43:40.037Z,59.21
2023-12-20T02:46:27.995Z,57.63
2023-12-20T02:49:15.891Z,58.94
2023-12-20T02:52:04.277Z,60.57
2023-12-20T02:54:52.523Z,65.87
2023-12-20T02:57:43.577Z,67.01
2023-12-20T03:00:31.432Z,65.18
2023-12-20T03:03:19.452Z,63.75
2023-12-20T03:06:07.330Z,62.13
2023-12-20T03:08:55.215Z,61.35
2023-12-20T03:11:42.905Z,60.89
2023-12-20T03:14:30.902Z,60.24
2023-12-20T03:17:20.008Z,59.87
2023-12-20T03:20:09.099Z,58.26
2023-12-20T03:22:57.090Z,59.48
2023-12-20T03:25:44.466Z,62.83
2023-12-20T03:28:32.173Z,64.09
2023-12-20T03:31:21.058Z,63.02
2023-12-20T03:34:08.798Z,61.63
2023-12-20T03:36:56.580Z,60.86
2023-12-20T03:39:44.607Z,60.15
2023-12-20T03:42:32.668Z,59.69
2023-12-20T03:45:20.299Z,57.87
2023-12-20T03:48:08.530Z,58.79
2023-12-20T03:50:56.639Z,62.28
2023-12-20T03:53:44.395Z,65.76
2023-12-20T03:56:32.155Z,65.27
2023-12-20T03:59:20.214Z,63.22
2023-12-20T04:02:08.068Z,62.03
2023-12-20T04:04:56.008Z,61.20
2023-12-20T04:07:43.631Z,60.60
2023-12-20T04:10:31.406Z,60.44
2023-12-20T04:13:19.677Z,59.78
2023-12-20T04:16:07.653Z,58.33
2023-12-20T04:18:55.532Z,57.68
2023-12-20T04:21:43.184Z,60.44
2023-12-20T04:24:30.698Z,64.62
2023-12-20T04:27:18.251Z,66.27
2023-12-20T04:30:06.843Z,64.89
2023-12-20T04:32:54.896Z,64.08
2023-12-20T04:35:43.980Z,62.91
2023-12-20T04:38:31.928Z,61.52
2023-12-20T04:41:20.265Z,60.97
2023-12-20T04:44:08.514Z,60.42
2023-12-20T04:46:57.761Z,60.01
2023-12-20T04:49:45.453Z,59.57
2023-12-20T04:52:33.411Z,58.18
2023-12-20T04:55:21.709Z,58.52
2023-12-20T04:58:09.573Z,63.15
2023-12-20T05:00:57.734Z,65.30
2023-12-20T05:03:45.477Z,64.23
2023-12-20T05:06:33.246Z,62.80
2023-12-20T05:09:21.467Z,61.56
2023-12-20T05:12:09.428Z,61.04
2023-12-20T05:14:57.758Z,60.61
2023-12-20T05:17:46.047Z,60.21
2023-12-20T05:20:33.741Z,59.99
2023-12-20T05:23:21.749Z,59.77
2023-12-20T05:26:09.423Z,59.73
2023-12-20T05:28:57.152Z,58.83
2023-12-20T05:31:44.834Z,59.43
2023-12-20T05:34:33.130Z,63.47
2023-12-20T05:37:21.095Z,64.47
2023-12-20T05:40:12.801Z,63.51
2023-12-20T05:43:00.762Z,62.11
2023-12-20T05:45:48.648Z,60.61
2023-12-20T05:48:36.783Z,60.17
2023-12-20T05:51:24.791Z,59.02
2023-12-20T05:54:12.557Z,59.15
2023-12-20T05:57:01.915Z,63.41
2023-12-20T05:59:49.607Z,64.34
2023-12-20T06:02:40.279Z,63.38
2023-12-20T06:05:28.236Z,62.14
2023-12-20T06:08:16.117Z,60.71
2023-12-20T06:11:03.985Z,60.07
2023-12-20T06:13:54.308Z,59.53
2023-12-20T06:16:42.143Z,58.89
2023-12-20T06:19:29.918Z,60.74
2023-12-20T06:22:17.773Z,64.73
2023-12-20T06:25:06.664Z,65.09
2023-12-20T06:27:54.699Z,63.93
2023-12-20T06:30:42.552Z,62.09
2023-12-20T06:33:32.228Z,61.60
2023-12-20T06:36:19.800Z,60.87
2023-12-20T06:39:07.849Z,60.26
2023-12-20T06:41:55.801Z,59.13
2023-12-20T06:44:43.401Z,59.22
2023-12-20T06:47:31.245Z,62.70
2023-12-20T06:50:18.793Z,63.84
2023-12-20T06:53:08.374Z,62.80
2023-12-20T06:55:57.589Z,61.74
2023-12-20T06:58:45.852Z,61.26
2023-12-20T07:01:33.546Z,60.76
2023-12-20T07:04:23.407Z,59.81
2023-12-20T07:07:11.652Z,59.55
2023-12-20T07:09:59.723Z,57.86
2023-12-20T07:12:47.782Z,61.20
2023-12-20T07:15:37.032Z,64.59
2023-12-20T07:18:25.333Z,63.23
2023-12-20T07:21:13.353Z,61.68
2023-12-20T07:24:01.116Z,60.77
2023-12-20T07:26:48.988Z,60.25
2023-12-20T07:29:37.115Z,59.51
2023-12-20T07:32:25.097Z,57.40
2023-12-20T07:35:13.210Z,61.31
2023-12-20T07:38:01.325Z,64.49
2023-12-20T07:40:49.212Z,64.09
2023-12-20T07:43:36.838Z,62.62
2023-12-20T07:46:24.933Z,61.41
2023-12-20T07:49:15.607Z,61.09
2023-12-20T07:52:03.732Z,60.43
2023-12-20T07:54:51.663Z,60.00
2023-12-20T07:57:39.405Z,59.92
2023-12-20T08:00:28.102Z,59.90
2023-12-20T08:03:15.854Z,59.85
2023-12-20T08:06:04.633Z,59.72
2023-12-20T08:08:58.702Z,59.58
2023-12-20T08:11:50.678Z,62.83
2023-12-20T08:14:41.429Z,64.38
2023-12-20T08:17:32.304Z,62.96
2023-12-20T08:20:23.436Z,62.01
2023-12-20T08:23:18.136Z,61.65
2023-12-20T08:26:07.853Z,61.50
2023-12-20T08:28:56.785Z,63.17
2023-12-20T08:31:46.166Z,64.30
2023-12-20T08:34:34.058Z,63.49
2023-12-20T08:37:21.988Z,62.08
2023-12-20T08:40:10.341Z,60.43
2023-12-20T08:42:58.056Z,58.67
2023-12-20T08:45:46.112Z,59.07
2023-12-20T08:48:34.125Z,60.76
2023-12-20T08:51:23.981Z,59.12
2023-12-20T08:54:14.215Z,57.98
2023-12-20T08:57:01.940Z,58.14
2023-12-20T08:59:49.905Z,56.55
2023-12-20T09:02:38.968Z,57.31
2023-12-20T09:05:27.730Z,57.70
2023-12-20T09:08:15.408Z,58.86
2023-12-20T09:11:03.157Z,60.02
2023-12-20T09:13:52.370Z,60.59
2023-12-20T09:16:40.209Z,62.27
2023-12-20T09:19:27.922Z,62.59
2023-12-20T09:22:16.107Z,59.99
2023-12-20T09:25:04.328Z,58.02
2023-12-20T09:27:53.782Z,60.18
2023-12-20T09:30:41.941Z,62.51
2023-12-20T09:33:29.946Z,62.84
2023-12-20T09:36:37.318Z,59.24
2023-12-20T09:39:25.346Z,57.58
2023-12-20T09:42:18.468Z,58.77
2023-12-20T09:45:10.932Z,61.51
2023-12-20T09:47:59.945Z,62.83
2023-12-20T09:50:51.835Z,61.16
2023-12-20T09:53:43.310Z,58.66
2023-12-20T09:56:32.113Z,59.42
2023-12-20T09:59:20.094Z,61.76
2023-12-20T10:02:15.591Z,62.53
2023-12-20T10:05:05.387Z,60.16
2023-12-20T10:07:53.547Z,58.04
2023-12-20T10:10:45.670Z,59.12
2023-12-20T10:13:42.357Z,62.32
2023-12-20T10:16:31.465Z,62.78
2023-12-20T10:19:19.763Z,59.91
2023-12-20T10:22:07.776Z,58.90
2023-12-20T10:24:57.670Z,60.96
2023-12-20T10:27:45.644Z,63.07
2023-12-20T10:30:33.140Z,62.42
2023-12-20T10:33:33.714Z,61.19
2023-12-20T10:36:22.855Z,58.82
2023-12-20T10:39:12.701Z,59.74
2023-12-20T10:42:00.872Z,63.16
2023-12-20T10:44:48.748Z,63.07
2023-12-20T10:47:38.902Z,60.97
2023-12-20T10:50:30.333Z,59.89
2023-12-20T10:53:18.038Z,58.93
2023-12-20T10:56:09.368Z,59.74
2023-12-20T10:59:02.611Z,63.49
2023-12-20T11:01:52.127Z,62.40
2023-12-20T11:04:46.312Z,61.08
2023-12-20T11:07:51.960Z,59.47
2023-12-20T11:11:07.594Z,59.17
2023-12-20T11:14:03.328Z,63.01
2023-12-20T11:16:55.401Z,64.15
2023-12-20T11:19:58.950Z,61.63
2023-12-20T11:22:57.496Z,60.14
2023-12-20T11:25:52.805Z,59.45
2023-12-20T11:28:41.074Z,62.49
2023-12-20T11:31:29.065Z,63.68
2023-12-20T11:34:18.939Z,61.60
2023-12-20T11:37:08.590Z,60.49
2023-12-20T11:39:58.100Z,59.65
2023-12-20T11:42:51.002Z,61.72
2023-12-20T11:45:50.735Z,64.77
2023-12-20T11:48:45.456Z,63.00
2023-12-20T11:51:33.450Z,61.41
2023-12-20T11:54:21.342Z,59.93
2023-12-20T11:57:08.980Z,59.42
2023-12-20T11:59:57.292Z,61.47
2023-12-20T12:02:46.811Z,63.81
2023-12-20T12:05:37.411Z,62.61
2023-12-20T12:08:25.641Z,60.89
2023-12-20T12:11:13.338Z,60.14
2023-12-20T12:14:02.192Z,59.82
2023-12-20T12:16:51.678Z,59.42
2023-12-20T12:19:41.114Z,60.32
2023-12-20T12:22:29.192Z,62.74
2023-12-20T12:25:17.204Z,64.60
2023-12-20T12:28:05.459Z,63.17
2023-12-20T12:31:00.612Z,61.48
2023-12-20T12:33:48.954Z,60.89
2023-12-20T12:36:37.185Z,60.22
2023-12-20T12:39:28.410Z,60.07
2023-12-20T12:42:16.135Z,59.93
2023-12-20T12:45:04.675Z,59.52
2023-12-20T12:47:52.466Z,61.26
2023-12-20T12:50:39.966Z,64.54
2023-12-20T12:53:30.482Z,63.79
2023-12-20T12:56:18.273Z,62.58
2023-12-20T12:59:06.939Z,61.85
2023-12-20T13:01:55.028Z,61.22
2023-12-20T13:04:44.325Z,60.61
2023-12-20T13:07:32.510Z,60.68
2023-12-20T13:10:20.354Z,60.98
2023-12-20T13:13:08.826Z,60.72
2023-12-20T13:15:56.609Z,60.08
2023-12-20T13:18:44.710Z,60.37
2023-12-20T13:21:32.734Z,59.71
2023-12-20T13:24:20.612Z,59.80
2023-12-20T13:27:08.361Z,60.11
2023-12-20T13:29:55.783Z,59.85
2023-12-20T13:32:43.831Z,59.81
2023-12-20T13:35:32.220Z,59.73
2023-12-20T13:38:20.675Z,59.94
2023-12-20T13:41:08.388Z,59.95
2023-12-20T13:43:56.359Z,59.46
2023-12-20T13:46:44.560Z,60.00
2023-12-20T13:49:32.838Z,63.29
2023-12-20T13:52:20.582Z,63.46
2023-12-20T13:55:09.596Z,62.03
2023-12-20T13:57:59.084Z,61.20
2023-12-20T14:00:47.646Z,60.49
2023-12-20T14:03:35.658Z,60.12
2023-12-20T14:06:23.420Z,59.41
2023-12-20T14:09:15.207Z,62.66
2023-12-20T14:12:02.865Z,64.09
2023-12-20T14:14:50.734Z,63.55
2023-12-20T14:17:40.452Z,61.69
2023-12-20T14:20:28.145Z,60.16
2023-12-20T14:23:15.962Z,60.24
2023-12-20T14:26:04.780Z,60.22
2023-12-20T14:28:52.320Z,60.14
2023-12-20T14:31:41.438Z,60.18
2023-12-20T14:34:29.431Z,59.37
2023-12-20T14:37:18.325Z,61.00
2023-12-20T14:40:17.662Z,63.86
2023-12-20T14:43:05.571Z,63.13
2023-12-20T14:45:54.536Z,61.75
2023-12-20T14:48:42.832Z,60.89
2023-12-20T14:51:30.707Z,60.59
2023-12-20T14:54:18.181Z,60.30
2023-12-20T14:57:06.484Z,60.11
2023-12-20T14:59:54.126Z,60.40
2023-12-20T15:02:42.461Z,59.64
2023-12-20T15:05:30.583Z,59.68
2023-12-20T15:08:18.474Z,59.79
2023-12-20T15:11:06.466Z,59.84
2023-12-20T15:13:57.420Z,59.59
2023-12-20T15:16:45.244Z,60.37
2023-12-20T15:19:33.756Z,64.00
2023-12-20T15:22:21.690Z,64.04
2023-12-20T15:25:10.065Z,62.50
2023-12-20T15:27:58.228Z,62.07
2023-12-20T15:30:46.129Z,62.04
2023-12-20T15:33:34.122Z,61.42
2023-12-20T15:36:22.014Z,61.23
2023-12-20T15:39:09.947Z,61.30
2023-12-20T15:41:58.135Z,61.20
2023-12-20T15:44:45.822Z,61.29
2023-12-20T15:47:37.260Z,61.01
2023-12-20T15:50:25.869Z,61.04
2023-12-20T15:53:13.889Z,60.86
2023-12-20T15:56:02.622Z,60.98
2023-12-20T15:58:52.779Z,60.83
2023-12-20T16:01:40.879Z,61.90
2023-12-20T16:04:32.201Z,61.73
2023-12-20T16:07:20.792Z,61.36
2023-12-20T16:10:08.912Z,61.47
2023-12-20T16:12:56.999Z,61.77
2023-12-20T16:15:44.973Z,61.64
2023-12-20T16:18:34.036Z,61.66
2023-12-20T16:21:21.860Z,62.04
2023-12-20T16:24:09.888Z,61.92
2023-12-20T16:26:57.560Z,61.93
2023-12-20T16:29:45.342Z,61.92
2023-12-20T16:32:33.928Z,61.52
2023-12-20T16:35:21.749Z,61.54
2023-12-20T16:38:09.346Z,61.70
2023-12-20T16:40:57.157Z,61.55
2023-12-20T16:43:44.853Z,61.38
2023-12-20T16:46:33.144Z,61.68
2023-12-20T16:49:22.576Z,61.88
2023-12-20T16:52:10.471Z,61.55
2023-12-20T16:54:59.297Z,61.60
2023-12-20T16:57:47.447Z,61.93
2023-12-20T17:00:35.558Z,62.30
2023-12-20T17:03:25.916Z,62.23
2023-12-20T17:06:13.781Z,61.82
2023-12-20T17:09:01.807Z,62.03
2023-12-20T17:11:49.351Z,62.00
2023-12-20T17:14:37.480Z,62.02
2023-12-20T17:17:25.465Z,61.81
2023-12-20T17:20:13.390Z,61.80
2023-12-20T17:23:01.165Z,61.66
2023-12-20T17:25:48.836Z,61.47
2023-12-20T17:28:36.645Z,61.16
2023-12-20T17:31:24.965Z,60.95
2023-12-20T17:34:14.025Z,61.02
2023-12-20T17:37:02.026Z,60.95
2023-12-20T17:39:50.000Z,61.33
2023-12-20T17:42:37.839Z,61.13
2023-12-20T17:45:26.201Z,61.18
2023-12-20T17:48:14.413Z,60.74
2023-12-20T17:51:02.815Z,60.40
2023-12-20T17:53:51.263Z,60.47
2023-12-20T17:56:38.794Z,60.51
2023-12-20T17:59:26.653Z,60.45
2023-12-20T18:02:14.228Z,60.85
2023-12-20T18:05:02.208Z,60.78
2023-12-20T18:07:53.153Z,60.70
2023-12-20T18:10:40.805Z,60.99
2023-12-20T18:13:31.481Z,61.16
2023-12-20T18:16:19.602Z,61.01
2023-12-20T18:19:07.921Z,60.91
2023-12-20T18:21:56.342Z,61.29
2023-12-20T18:24:44.311Z,61.26
2023-12-20T18:27:32.397Z,61.41
2023-12-20T18:30:20.428Z,61.35
2023-12-20T18:33:08.149Z,61.27
2023-12-20T18:35:56.313Z,61.23
2023-12-20T18:38:46.683Z,61.12
2023-12-20T18:41:34.533Z,60.96
2023-12-20T18:44:22.205Z,61.08
2023-12-20T18:47:10.255Z,61.20
2023-12-20T18:49:58.327Z,61.43
2023-12-20T18:52:47.232Z,61.64
2023-12-20T18:55:35.118Z,61.76
2023-12-20T18:58:25.015Z,61.66
2023-12-20T19:01:12.969Z,61.38
2023-12-20T19:04:01.289Z,61.17
2023-12-20T19:06:50.633Z,61.49
2023-12-20T19:09:38.486Z,61.07
2023-12-20T19:12:26.207Z,61.07
2023-12-20T19:15:14.227Z,61.19
2023-12-20T19:18:01.979Z,61.10
2023-12-20T19:20:50.525Z,60.82
2023-12-20T19:23:38.424Z,60.56
2023-12-20T19:26:25.925Z,60.30
2023-12-20T19:29:13.801Z,60.28
2023-12-20T19:32:01.330Z,60.12
2023-12-20T19:34:49.114Z,60.16
2023-12-20T19:37:36.931Z,60.09
2023-12-20T19:40:24.705Z,60.04
2023-12-20T19:43:12.574Z,59.99
2023-12-20T19:46:00.586Z,60.02
2023-12-20T19:48:48.390Z,59.77
2023-12-20T19:51:37.164Z,59.84
2023-12-20T19:54:25.806Z,60.97
2023-12-20T19:57:15.698Z,61.04
2023-12-20T20:00:06.076Z,61.06
2023-12-20T20:02:59.881Z,61.24
2023-12-20T20:05:47.921Z,60.88
2023-12-20T20:08:36.247Z,61.53
2023-12-20T20:11:33.026Z,60.82
2023-12-20T20:14:28.267Z,61.17
2023-12-20T20:17:17.513Z,61.19
2023-12-20T20:20:07.580Z,61.03
2023-12-20T20:22:55.781Z,61.08
2023-12-20T20:25:43.891Z,61.00
2023-12-20T20:28:32.078Z,60.78
2023-12-20T20:31:20.142Z,60.59
2023-12-20T20:34:08.239Z,60.45
2023-12-20T20:36:56.745Z,60.38
2023-12-20T20:39:46.509Z,60.67
2023-12-20T20:42:35.817Z,60.86
2023-12-20T20:45:24.126Z,61.18
2023-12-20T20:48:21.401Z,61.80
2023-12-20T20:51:15.389Z,61.42
2023-12-20T20:54:11.907Z,60.77
2023-12-20T20:57:06.045Z,60.32
2023-12-20T20:59:53.806Z,60.01
2023-12-20T21:02:41.904Z,59.73
2023-12-20T21:05:30.645Z,59.86
2023-12-20T21:08:18.417Z,60.06
2023-12-20T21:11:06.483Z,59.89
2023-12-20T21:13:54.754Z,60.06
2023-12-20T21:16:42.777Z,59.84
2023-12-20T21:19:30.996Z,59.88
2023-12-20T21:22:18.666Z,59.81
2023-12-20T21:25:09.965Z,60.11
2023-12-20T21:27:57.797Z,59.35
2023-12-20T21:30:46.133Z,61.65
2023-12-20T21:33:34.386Z,63.97
2023-12-20T21:36:22.457Z,63.36
2023-12-20T21:39:11.297Z,62.29
2023-12-20T21:41:59.450Z,61.85
2023-12-20T21:44:47.206Z,61.38
2023-12-20T21:47:35.046Z,61.25
2023-12-20T21:50:23.364Z,61.12
2023-12-20T21:53:12.573Z,60.55
2023-12-20T21:56:00.296Z,60.76
2023-12-20T21:58:47.806Z,60.66
2023-12-20T22:01:41.368Z,60.17
2023-12-20T22:04:29.060Z,60.29
2023-12-20T22:07:17.447Z,60.16
2023-12-20T22:10:06.689Z,60.43
2023-12-20T22:12:54.830Z,60.51
2023-12-20T22:15:42.870Z,60.18
2023-12-20T22:18:30.875Z,59.69
2023-12-20T22:21:18.525Z,57.43
2023-12-20T22:24:06.810Z,57.48
2023-12-20T22:26:56.617Z,64.93
2023-12-20T22:29:44.233Z,65.27
2023-12-20T22:32:32.113Z,64.35
2023-12-20T22:35:20.677Z,62.70
2023-12-20T22:38:08.235Z,61.83
2023-12-20T22:40:55.985Z,61.93
2023-12-20T22:43:43.932Z,61.13
2023-12-20T22:46:31.810Z,60.64
2023-12-20T22:49:20.460Z,60.22
2023-12-20T22:52:08.142Z,60.21
2023-12-20T22:54:56.958Z,60.16
2023-12-20T22:57:44.982Z,60.48
2023-12-20T23:00:32.932Z,60.43
2023-12-20T23:03:26.244Z,60.11
2023-12-20T23:06:14.132Z,60.35
2023-12-20T23:09:01.698Z,60.54
2023-12-20T23:11:51.074Z,60.58
2023-12-20T23:14:39.314Z,60.58
2023-12-20T23:17:27.245Z,60.24
2023-12-20T23:20:15.051Z,60.56
2023-12-20T23:23:02.992Z,60.57
2023-12-20T23:25:52.535Z,60.14
2023-12-20T23:28:41.650Z,60.07
2023-12-20T23:31:29.786Z,59.90
2023-12-20T23:34:17.723Z,60.55
2023-12-20T23:37:06.200Z,60.30
2023-12-20T23:39:54.184Z,60.17
2023-12-20T23:42:41.870Z,59.94
2023-12-20T23:45:30.054Z,60.21
2023-12-20T23:48:17.943Z,60.15
2023-12-20T23:51:05.733Z,60.27
2023-12-20T23:53:53.705Z,60.36
2023-12-20T23:56:41.306Z,60.33
2023-12-20T23:59:30.148Z,59.48
